Terminal Aerodrome Forecast
Issued by NWS

Home | Current Version | Previous Version | Text Only | Print | Product List | Glossary On
Versions: 1 2 3 4 5 6 7 8 9 10 11 12 13 14
667
FTUS45 KRIW 041122
TAFJAC
TAF
KJAC 041122Z 0412/0512 21013KT 1 1/2SM -SN SCT007 OVC015
      WS020/25035KT
     FM042000 21017G25KT 1SM -SN BLSN OVC008 WS017/24045KT
     FM051000 22014G20KT 2SM -SHSN SCT009 OVC016
      AMD LTD TO CLD VIS AND WIND=

USA.gov is the U.S. government's official web portal to all federal, state and local government web resources and services.